createdAt,value
2018-10-17T00:00:03.716Z,60.94
2018-10-17T00:02:31.638Z,61.40
2018-10-17T00:04:59.270Z,60.88
2018-10-17T00:07:27.036Z,61.40
2018-10-17T00:09:54.630Z,60.81
2018-10-17T00:12:22.679Z,60.77
2018-10-17T00:14:50.315Z,61.06
2018-10-17T00:17:17.926Z,61.21
2018-10-17T00:19:45.599Z,61.12
2018-10-17T00:22:13.535Z,61.33
2018-10-17T00:24:41.176Z,61.38
2018-10-17T00:27:09.712Z,61.85
2018-10-17T00:29:37.344Z,61.66
2018-10-17T00:32:05.446Z,61.46
2018-10-17T00:34:33.067Z,61.50
2018-10-17T00:37:00.700Z,61.69
2018-10-17T00:39:28.341Z,61.93
2018-10-17T00:41:56.276Z,61.89
2018-10-17T00:44:23.968Z,62.17
2018-10-17T00:46:51.588Z,62.43
2018-10-17T00:49:19.211Z,62.43
2018-10-17T00:51:47.222Z,61.96
2018-10-17T00:54:14.902Z,62.14
2018-10-17T00:56:42.535Z,62.42
2018-10-17T00:59:17.090Z,61.83
2018-10-17T01:01:45.419Z,62.31
2018-10-17T01:04:13.003Z,62.01
2018-10-17T01:06:40.987Z,61.98
2018-10-17T01:09:11.172Z,61.96
2018-10-17T01:11:40.235Z,62.05
2018-10-17T01:14:08.219Z,61.93
2018-10-17T01:16:36.271Z,62.09
2018-10-17T01:19:04.542Z,61.79
2018-10-17T01:21:32.440Z,62.38
2018-10-17T01:24:00.483Z,62.11
2018-10-17T01:26:28.114Z,61.72
2018-10-17T01:28:55.772Z,61.77
2018-10-17T01:31:23.435Z,61.64
2018-10-17T01:33:51.634Z,61.40
2018-10-17T01:36:19.282Z,62.17
2018-10-17T01:38:47.035Z,61.65
2018-10-17T01:41:14.772Z,62.16
2018-10-17T01:43:42.873Z,61.45
2018-10-17T01:46:10.466Z,62.28
2018-10-17T01:48:38.087Z,61.62
2018-10-17T01:51:05.707Z,62.24
2018-10-17T01:53:33.619Z,61.95
2018-10-17T01:56:01.286Z,61.96
2018-10-17T01:58:29.271Z,62.44
2018-10-17T02:00:57.081Z,62.25
2018-10-17T02:03:25.211Z,62.52
2018-10-17T02:05:52.807Z,62.26
2018-10-17T02:08:20.409Z,62.29
2018-10-17T02:10:48.038Z,62.36
2018-10-17T02:13:16.055Z,62.25
2018-10-17T02:15:43.675Z,62.41
2018-10-17T02:18:11.236Z,62.58
2018-10-17T02:20:38.787Z,62.75
2018-10-17T02:23:06.817Z,62.75
2018-10-17T02:25:34.357Z,62.40
2018-10-17T02:28:01.950Z,62.23
2018-10-17T02:30:29.513Z,62.93
2018-10-17T02:32:57.406Z,62.73
2018-10-17T02:35:24.918Z,63.27
2018-10-17T02:37:52.506Z,62.93
2018-10-17T02:40:20.010Z,63.20
2018-10-17T02:42:48.030Z,62.99
2018-10-17T02:45:15.637Z,63.20
2018-10-17T02:47:43.281Z,63.24
2018-10-17T02:50:12.320Z,63.74
2018-10-17T02:52:41.093Z,63.94
2018-10-17T02:55:08.982Z,63.74
2018-10-17T02:57:37.465Z,63.24
2018-10-17T03:00:05.077Z,63.46
2018-10-17T03:02:32.969Z,63.62
2018-10-17T03:05:00.987Z,63.54
2018-10-17T03:07:28.730Z,63.05
2018-10-17T03:09:56.290Z,63.39
2018-10-17T03:12:24.250Z,63.93
2018-10-17T03:14:51.758Z,64.04
2018-10-17T03:17:19.480Z,63.80
2018-10-17T03:19:47.479Z,64.18
2018-10-17T03:22:15.047Z,64.37
2018-10-17T03:24:42.645Z,63.74
2018-10-17T03:27:10.631Z,63.54
2018-10-17T03:29:38.149Z,64.26
2018-10-17T03:32:05.645Z,64.23
2018-10-17T03:34:33.197Z,64.21
2018-10-17T03:37:01.124Z,64.19
2018-10-17T03:39:28.641Z,64.10
2018-10-17T03:41:56.250Z,64.36
2018-10-17T03:44:24.688Z,64.48
2018-10-17T03:46:52.247Z,64.12
2018-10-17T03:49:19.893Z,63.67
2018-10-17T03:51:47.356Z,64.32
2018-10-17T03:54:15.365Z,64.00
2018-10-17T03:56:42.866Z,63.81
2018-10-17T03:59:10.505Z,64.20
2018-10-17T04:01:38.018Z,63.96
2018-10-17T04:04:05.975Z,63.97
2018-10-17T04:06:33.480Z,64.22
2018-10-17T04:09:01.026Z,63.84
2018-10-17T04:11:28.810Z,63.34
2018-10-17T04:13:57.010Z,63.58
2018-10-17T04:16:24.517Z,63.98
2018-10-17T04:18:52.111Z,64.51
2018-10-17T04:21:19.649Z,64.10
2018-10-17T04:23:47.506Z,64.11
2018-10-17T04:26:15.074Z,64.46
2018-10-17T04:28:42.588Z,64.33
2018-10-17T04:31:10.554Z,64.96
2018-10-17T04:33:38.046Z,64.53
2018-10-17T04:36:05.597Z,64.97
2018-10-17T04:38:33.426Z,64.96
2018-10-17T04:41:01.002Z,65.38
2018-10-17T04:43:28.634Z,64.96
2018-10-17T04:45:56.620Z,65.17
2018-10-17T04:48:24.199Z,65.36
2018-10-17T04:50:51.738Z,65.20
2018-10-17T04:53:19.601Z,65.61
2018-10-17T04:55:47.130Z,65.68
2018-10-17T04:58:14.634Z,65.76
2018-10-17T05:00:42.588Z,65.53
2018-10-17T05:03:12.019Z,65.85
2018-10-17T05:05:39.562Z,65.49
2018-10-17T05:08:07.470Z,65.30
2018-10-17T05:10:35.034Z,65.86
2018-10-17T05:13:02.592Z,65.54
2018-10-17T05:15:30.421Z,65.19
2018-10-17T05:17:58.273Z,65.01
2018-10-17T05:20:25.858Z,65.46
2018-10-17T05:22:54.467Z,64.91
2018-10-17T05:25:21.990Z,65.07
2018-10-17T05:27:49.599Z,64.95
2018-10-17T05:30:17.409Z,65.38
2018-10-17T05:32:44.925Z,65.28
2018-10-17T05:35:12.467Z,65.41
2018-10-17T05:37:40.476Z,65.02
2018-10-17T05:40:07.975Z,65.34
2018-10-17T05:42:35.559Z,64.82
2018-10-17T05:45:03.411Z,65.86
2018-10-17T05:47:30.940Z,65.23
2018-10-17T05:49:58.522Z,65.37
2018-10-17T05:52:26.403Z,64.67
2018-10-17T05:54:54.039Z,65.06
2018-10-17T05:57:21.625Z,65.09
2018-10-17T05:59:49.560Z,64.63
2018-10-17T06:02:20.684Z,64.03
2018-10-17T06:04:48.270Z,64.50
2018-10-17T06:07:16.206Z,64.50
2018-10-17T06:09:43.704Z,64.03
2018-10-17T06:12:12.678Z,64.49
2018-10-17T06:14:40.634Z,64.14
2018-10-17T06:17:11.944Z,64.38
2018-10-17T06:19:39.481Z,64.10
2018-10-17T06:22:07.298Z,64.25
2018-10-17T06:24:35.789Z,64.18
2018-10-17T06:27:03.313Z,63.96
2018-10-17T06:29:31.258Z,63.93
2018-10-17T06:34:32.378Z,64.02
2018-10-17T06:37:01.880Z,63.56
2018-10-17T06:39:29.433Z,63.53
2018-10-17T06:41:56.987Z,63.05
2018-10-17T06:44:26.041Z,63.45
2018-10-17T06:46:53.544Z,63.24
2018-10-17T06:49:21.145Z,63.76
2018-10-17T06:51:50.685Z,63.29
2018-10-17T06:54:18.494Z,63.45
2018-10-17T06:56:47.618Z,63.83
2018-10-17T06:59:15.819Z,63.51
2018-10-17T07:01:44.805Z,63.07
2018-10-17T07:04:12.305Z,63.10
2018-10-17T07:06:43.593Z,63.39
2018-10-17T07:09:11.606Z,62.52
2018-10-17T07:11:39.468Z,62.52
2018-10-17T07:14:08.478Z,62.87
2018-10-17T07:16:36.625Z,62.43
2018-10-17T07:19:04.589Z,62.53
2018-10-17T07:21:32.495Z,61.94
2018-10-17T07:24:00.277Z,62.10
2018-10-17T07:26:27.798Z,62.41
2018-10-17T07:28:56.017Z,61.98
2018-10-17T07:31:23.493Z,61.55
2018-10-17T07:33:51.013Z,61.83
2018-10-17T07:36:18.956Z,61.80
2018-10-17T07:38:46.437Z,61.10
2018-10-17T07:41:14.654Z,60.88
2018-10-17T07:43:43.448Z,60.29
2018-10-17T07:46:10.964Z,60.35
2018-10-17T07:48:38.507Z,59.82
2018-10-17T07:51:06.467Z,59.72
2018-10-17T07:53:34.369Z,59.11
2018-10-17T07:56:02.076Z,59.10
2018-10-17T07:58:30.098Z,59.57
2018-10-17T08:00:57.607Z,58.69
2018-10-17T08:03:25.404Z,58.51
2018-10-17T08:05:53.303Z,58.50
2018-10-17T08:08:20.909Z,58.93
2018-10-17T08:10:48.946Z,58.94
2018-10-17T08:13:17.482Z,58.65
2018-10-17T08:15:45.007Z,57.88
2018-10-17T08:18:12.566Z,58.42
2018-10-17T08:20:40.478Z,58.45
2018-10-17T08:23:08.765Z,57.49
2018-10-17T08:25:36.432Z,57.56
2018-10-17T08:28:04.421Z,57.02
2018-10-17T08:30:31.945Z,57.02
2018-10-17T08:32:59.452Z,57.50
2018-10-17T08:35:27.603Z,56.65
2018-10-17T08:37:55.412Z,56.22
2018-10-17T08:40:22.719Z,56.54
2018-10-17T08:42:50.708Z,56.45
2018-10-17T08:45:18.271Z,56.03
2018-10-17T08:47:45.799Z,55.51
2018-10-17T08:50:13.752Z,55.32
2018-10-17T08:52:42.399Z,55.23
2018-10-17T08:55:09.935Z,54.92
2018-10-17T08:57:37.867Z,55.11
2018-10-17T09:00:06.677Z,55.13
2018-10-17T09:02:34.190Z,54.68
2018-10-17T09:05:02.069Z,53.95
2018-10-17T09:07:29.580Z,53.88
2018-10-17T09:09:57.185Z,54.35
2018-10-17T09:12:28.198Z,53.56
2018-10-17T09:14:56.348Z,53.84
2018-10-17T09:17:23.889Z,53.39
2018-10-17T09:19:51.961Z,53.41
2018-10-17T09:22:19.557Z,52.87
2018-10-17T09:24:46.853Z,52.75
2018-10-17T09:27:15.677Z,52.70
2018-10-17T09:29:43.452Z,52.85
2018-10-17T09:32:11.941Z,51.75
2018-10-17T09:34:39.791Z,51.59
2018-10-17T09:37:07.330Z,51.97
2018-10-17T09:39:34.866Z,51.78
2018-10-17T09:42:02.750Z,52.23
2018-10-17T09:44:30.301Z,50.94
2018-10-17T09:46:57.838Z,49.78
2018-10-17T09:49:26.404Z,48.49
2018-10-17T09:51:54.038Z,47.04
2018-10-17T09:54:22.218Z,46.18
2018-10-17T09:56:50.545Z,45.63
2018-10-17T09:59:18.051Z,44.33
2018-10-17T10:01:48.787Z,42.52
2018-10-17T10:04:16.397Z,41.68
2018-10-17T10:06:45.651Z,40.52
2018-10-17T10:09:13.557Z,40.64
2018-10-17T10:11:41.223Z,39.30
2018-10-17T10:14:09.362Z,39.23
2018-10-17T10:16:38.366Z,40.07
2018-10-17T10:19:05.881Z,40.90
2018-10-17T10:21:33.458Z,39.50
2018-10-17T10:24:08.328Z,39.45
2018-10-17T10:26:37.144Z,38.59
2018-10-17T10:29:05.277Z,38.07
2018-10-17T10:31:34.289Z,37.83
2018-10-17T10:34:03.144Z,38.24
2018-10-17T10:36:31.360Z,38.49
2018-10-17T10:38:59.282Z,38.50
2018-10-17T10:41:26.821Z,38.46
2018-10-17T10:43:54.446Z,39.79
2018-10-17T10:46:22.413Z,40.49
2018-10-17T10:48:51.414Z,40.68
2018-10-17T10:51:19.121Z,41.08
2018-10-17T10:53:48.619Z,41.65
2018-10-17T10:56:17.181Z,42.00
2018-10-17T10:58:45.422Z,42.21
2018-10-17T11:01:14.140Z,41.58
2018-10-17T11:03:41.780Z,40.32
2018-10-17T11:06:09.354Z,39.44
2018-10-17T11:08:38.269Z,39.61
2018-10-17T11:11:05.828Z,39.54
2018-10-17T11:13:33.324Z,39.02
2018-10-17T11:16:01.312Z,39.78
2018-10-17T11:18:28.882Z,39.27
2018-10-17T11:20:57.513Z,39.85
2018-10-17T11:23:25.323Z,40.20
2018-10-17T11:25:54.674Z,41.29
2018-10-17T11:28:22.177Z,40.91
2018-10-17T11:30:51.848Z,41.61
2018-10-17T11:33:20.583Z,41.83
2018-10-17T11:35:49.813Z,41.46
2018-10-17T11:38:18.700Z,41.34
2018-10-17T11:40:46.379Z,40.01
2018-10-17T11:43:15.219Z,40.28
2018-10-17T11:45:44.131Z,40.09
2018-10-17T11:50:52.037Z,40.79
2018-10-17T11:53:19.581Z,41.29
2018-10-17T11:55:48.974Z,41.27
2018-10-17T11:58:16.972Z,42.07
2018-10-17T12:00:44.481Z,41.06
2018-10-17T12:03:12.762Z,40.91
2018-10-17T12:05:41.565Z,41.63
2018-10-17T12:08:08.817Z,42.44
2018-10-17T12:10:37.745Z,43.51
2018-10-17T12:13:05.602Z,43.46
2018-10-17T12:15:33.157Z,43.74
2018-10-17T12:18:00.807Z,44.14
2018-10-17T12:20:28.591Z,43.93
2018-10-17T12:22:56.097Z,43.09
2018-10-17T12:25:23.896Z,43.39
2018-10-17T12:27:51.921Z,43.81
2018-10-17T12:30:20.717Z,43.43
2018-10-17T12:32:48.746Z,43.16
2018-10-17T12:35:16.735Z,43.13
2018-10-17T12:37:44.198Z,43.40
2018-10-17T12:40:12.020Z,43.07
2018-10-17T12:42:39.809Z,43.93
2018-10-17T12:45:07.688Z,43.21
2018-10-17T12:47:35.221Z,43.38
2018-10-17T12:50:04.396Z,43.46
2018-10-17T12:52:32.444Z,43.85
2018-10-17T12:54:59.979Z,43.62
2018-10-17T12:57:27.870Z,44.54
2018-10-17T12:59:57.023Z,44.69
2018-10-17T13:02:24.677Z,44.66
2018-10-17T13:04:52.515Z,44.12
2018-10-17T13:07:20.757Z,44.50
2018-10-17T13:09:48.601Z,44.77
2018-10-17T13:12:16.118Z,44.87
2018-10-17T13:14:43.644Z,45.26
2018-10-17T13:17:11.591Z,44.57
2018-10-17T13:19:40.138Z,45.31
2018-10-17T13:22:08.047Z,44.29
2018-10-17T13:24:38.121Z,44.73
2018-10-17T13:27:06.252Z,45.08
2018-10-17T13:29:33.774Z,44.29
2018-10-17T13:32:01.638Z,44.22
2018-10-17T13:34:29.157Z,45.01
2018-10-17T13:36:56.726Z,45.00
2018-10-17T13:39:24.640Z,44.45
2018-10-17T13:41:52.190Z,44.15
2018-10-17T13:44:19.737Z,44.94
2018-10-17T13:46:50.216Z,45.01
2018-10-17T13:49:18.596Z,44.95
2018-10-17T13:51:46.307Z,44.24
2018-10-17T13:54:15.925Z,45.12
2018-10-17T13:56:44.341Z,44.95
2018-10-17T13:59:12.636Z,45.03
2018-10-17T14:01:40.547Z,45.28
2018-10-17T14:04:08.399Z,45.07
2018-10-17T14:06:36.609Z,45.13
2018-10-17T14:09:05.449Z,45.05
2018-10-17T14:11:33.701Z,45.08
2018-10-17T14:14:01.264Z,45.32
2018-10-17T14:16:29.456Z,45.24
2018-10-17T14:18:57.324Z,44.98
2018-10-17T14:21:24.842Z,44.92
2018-10-17T14:23:53.827Z,45.53
2018-10-17T14:26:22.472Z,44.70
2018-10-17T14:28:51.637Z,45.45
2018-10-17T14:31:20.517Z,44.56
2018-10-17T14:33:52.493Z,45.45
2018-10-17T14:36:20.469Z,45.04
2018-10-17T14:38:48.371Z,44.92
2018-10-17T14:41:15.945Z,44.60
2018-10-17T14:43:43.549Z,45.38
2018-10-17T14:46:11.454Z,44.78
2018-10-17T14:48:39.403Z,44.72
2018-10-17T14:51:06.964Z,45.29
2018-10-17T14:53:35.566Z,44.80
2018-10-17T14:56:03.726Z,44.97
2018-10-17T14:58:31.505Z,45.75
2018-10-17T15:00:59.395Z,45.64
2018-10-17T15:03:27.729Z,45.33
2018-10-17T15:05:55.516Z,45.19
2018-10-17T15:08:23.386Z,46.02
2018-10-17T15:10:51.694Z,45.85
2018-10-17T15:13:20.047Z,45.60
2018-10-17T15:15:48.955Z,45.90
2018-10-17T15:18:17.813Z,45.62
2018-10-17T15:20:45.531Z,45.81
2018-10-17T15:23:15.326Z,46.38
2018-10-17T15:25:43.847Z,46.29
2018-10-17T15:28:12.182Z,46.80
2018-10-17T15:30:40.123Z,46.81
2018-10-17T15:33:07.702Z,46.62
2018-10-17T15:35:36.086Z,47.07
2018-10-17T15:38:03.965Z,47.15
2018-10-17T15:40:32.106Z,47.07
2018-10-17T15:43:00.339Z,47.91
2018-10-17T15:45:28.595Z,47.99
2018-10-17T15:47:56.418Z,48.44
2018-10-17T15:50:24.581Z,47.92
2018-10-17T15:52:53.567Z,48.38
2018-10-17T15:55:22.036Z,48.36
2018-10-17T15:57:49.568Z,49.17
2018-10-17T16:00:18.727Z,49.13
2018-10-17T16:02:46.847Z,49.72
2018-10-17T16:05:14.290Z,49.24
2018-10-17T16:07:44.195Z,49.93
2018-10-17T16:10:11.775Z,50.27
2018-10-17T16:12:40.454Z,50.23
2018-10-17T16:15:08.309Z,49.94
2018-10-17T16:17:36.415Z,49.93
2018-10-17T16:20:04.134Z,50.29
2018-10-17T16:22:32.088Z,50.91
2018-10-17T16:24:59.691Z,50.52
2018-10-17T16:27:27.880Z,51.03
2018-10-17T16:29:56.161Z,51.60
2018-10-17T16:34:59.069Z,51.96
2018-10-17T16:37:28.161Z,51.58
2018-10-17T16:39:56.694Z,51.92
2018-10-17T16:42:27.490Z,52.02
2018-10-17T16:44:55.417Z,51.83
2018-10-17T16:47:22.985Z,52.95
2018-10-17T16:49:50.575Z,52.19
2018-10-17T16:52:19.207Z,53.09
2018-10-17T16:54:46.730Z,52.92
2018-10-17T16:57:14.355Z,52.64
2018-10-17T16:59:43.343Z,53.13
2018-10-17T17:02:10.898Z,53.35
2018-10-17T17:04:38.457Z,53.26
2018-10-17T17:07:07.382Z,53.88
2018-10-17T17:09:36.083Z,54.06
2018-10-17T17:12:05.364Z,53.78
2018-10-17T17:14:34.286Z,54.49
2018-10-17T17:17:02.694Z,54.14
2018-10-17T17:19:32.644Z,54.13
2018-10-17T17:22:00.596Z,54.37
2018-10-17T17:24:30.105Z,54.74
2018-10-17T17:26:58.800Z,54.26
2018-10-17T17:29:27.846Z,54.60
2018-10-17T17:31:56.403Z,55.16
2018-10-17T17:34:25.405Z,54.63
2018-10-17T17:36:54.073Z,55.00
2018-10-17T17:39:22.101Z,55.41
2018-10-17T17:41:50.667Z,55.28
2018-10-17T17:44:18.496Z,55.18
2018-10-17T17:46:47.756Z,55.27
2018-10-17T17:49:17.507Z,55.81
2018-10-17T17:51:46.496Z,56.20
2018-10-17T17:54:14.052Z,55.63
2018-10-17T17:56:41.708Z,55.76
2018-10-17T17:59:10.090Z,56.36
2018-10-17T18:01:38.490Z,56.16
2018-10-17T18:04:06.064Z,56.19
2018-10-17T18:06:34.640Z,56.72
2018-10-17T18:09:02.201Z,56.85
2018-10-17T18:11:31.690Z,57.16
2018-10-17T18:13:59.649Z,56.21
2018-10-17T18:16:27.313Z,56.28
2018-10-17T18:18:55.206Z,57.25
2018-10-17T18:21:22.753Z,56.68
2018-10-17T18:23:52.910Z,57.21
2018-10-17T18:26:23.810Z,56.93
2018-10-17T18:28:51.334Z,56.81
2018-10-17T18:31:18.878Z,57.00
2018-10-17T18:33:47.730Z,57.20
2018-10-17T18:36:16.900Z,58.00
2018-10-17T18:38:44.493Z,57.98
2018-10-17T18:41:12.601Z,57.94
2018-10-17T18:43:41.677Z,58.40
2018-10-17T18:46:09.398Z,58.36
2018-10-17T18:48:37.634Z,58.53
2018-10-17T18:51:05.407Z,58.72
2018-10-17T18:53:34.536Z,58.07
2018-10-17T18:56:03.499Z,58.70
2018-10-17T18:58:31.582Z,58.25
2018-10-17T19:00:59.258Z,58.52
2018-10-17T19:03:29.249Z,58.44
2018-10-17T19:05:56.792Z,58.88
2018-10-17T19:08:24.298Z,59.07
2018-10-17T19:10:54.302Z,58.99
2018-10-17T19:13:21.875Z,59.18
2018-10-17T19:15:50.069Z,59.29
2018-10-17T19:18:18.021Z,59.66
2018-10-17T19:20:46.761Z,59.47
2018-10-17T19:23:14.365Z,59.41
2018-10-17T19:25:42.649Z,58.89
2018-10-17T19:28:11.838Z,59.57
2018-10-17T19:30:39.369Z,59.25
2018-10-17T19:33:07.484Z,59.44
2018-10-17T19:35:36.659Z,59.46
2018-10-17T19:38:04.169Z,59.90
2018-10-17T19:40:33.551Z,59.71
2018-10-17T19:43:01.342Z,59.70
2018-10-17T19:45:28.852Z,59.85
2018-10-17T19:47:56.813Z,59.61
2018-10-17T19:50:24.377Z,59.67
2018-10-17T19:52:52.907Z,59.46
2018-10-17T19:55:20.709Z,59.03
2018-10-17T19:57:50.073Z,59.57
2018-10-17T20:00:19.304Z,59.46
2018-10-17T20:02:49.431Z,59.63
2018-10-17T20:05:18.337Z,59.24
2018-10-17T20:07:46.748Z,59.49
2018-10-17T20:10:16.302Z,60.26
2018-10-17T20:12:44.453Z,60.23
2018-10-17T20:15:12.744Z,60.05
2018-10-17T20:17:43.156Z,59.79
2018-10-17T20:20:11.783Z,59.88
2018-10-17T20:22:39.865Z,59.99
2018-10-17T20:25:07.995Z,60.09
2018-10-17T20:27:37.292Z,60.40
2018-10-17T20:30:04.782Z,60.28
2018-10-17T20:32:32.945Z,60.80
2018-10-17T20:35:00.489Z,60.53
2018-10-17T20:37:28.010Z,60.91
2018-10-17T20:39:55.921Z,60.37
2018-10-17T20:42:23.580Z,60.68
2018-10-17T20:44:53.026Z,60.47
2018-10-17T20:47:23.994Z,60.53
2018-10-17T20:49:51.532Z,60.56
2018-10-17T20:52:20.750Z,60.89
2018-10-17T20:54:49.812Z,60.74
2018-10-17T20:57:18.326Z,60.87
2018-10-17T20:59:46.704Z,60.39
2018-10-17T21:02:15.385Z,60.97
2018-10-17T21:04:42.909Z,60.57
2018-10-17T21:07:10.465Z,61.38
2018-10-17T21:09:40.002Z,60.86
2018-10-17T21:12:07.497Z,61.08
2018-10-17T21:14:38.060Z,61.21
2018-10-17T21:17:06.751Z,60.71
2018-10-17T21:19:34.333Z,60.78
2018-10-17T21:22:02.570Z,61.63
2018-10-17T21:24:30.470Z,61.39
2018-10-17T21:26:58.790Z,60.93
2018-10-17T21:29:27.390Z,61.28
2018-10-17T21:31:56.314Z,61.63
2018-10-17T21:34:23.861Z,60.84
2018-10-17T21:36:51.387Z,61.32
2018-10-17T21:39:19.250Z,60.96
2018-10-17T21:41:47.424Z,61.08
2018-10-17T21:44:15.094Z,61.61
2018-10-17T21:46:43.484Z,62.05
2018-10-17T21:49:12.044Z,62.10
2018-10-17T21:51:40.069Z,61.27
2018-10-17T21:54:08.117Z,61.39
2018-10-17T21:56:35.644Z,62.15
2018-10-17T21:59:04.114Z,62.05
2018-10-17T22:01:31.943Z,61.61
2018-10-17T22:03:59.444Z,61.94
2018-10-17T22:06:27.016Z,62.31
2018-10-17T22:08:54.520Z,61.77
2018-10-17T22:11:22.367Z,62.11
2018-10-17T22:13:50.669Z,62.32
2018-10-17T22:16:18.438Z,62.35
2018-10-17T22:18:46.441Z,62.99
2018-10-17T22:21:13.953Z,62.74
2018-10-17T22:23:42.050Z,63.09
2018-10-17T22:26:09.779Z,62.83
2018-10-17T22:28:37.625Z,62.95
2018-10-17T22:31:05.155Z,62.59
2018-10-17T22:33:33.665Z,62.83
2018-10-17T22:36:02.216Z,62.98
2018-10-17T22:38:29.723Z,63.33
2018-10-17T22:40:57.475Z,63.49
2018-10-17T22:43:25.441Z,63.48
2018-10-17T22:45:53.875Z,63.53
2018-10-17T22:48:21.380Z,64.04
2018-10-17T22:50:49.475Z,63.73
2018-10-17T22:53:18.666Z,63.52
2018-10-17T22:55:46.822Z,64.15
2018-10-17T22:58:15.493Z,63.95
2018-10-17T23:00:45.677Z,64.07
2018-10-17T23:03:13.206Z,64.59
2018-10-17T23:05:40.744Z,64.00
2018-10-17T23:08:08.712Z,64.01
2018-10-17T23:10:37.862Z,64.66
2018-10-17T23:13:06.829Z,64.34
2018-10-17T23:15:34.462Z,64.62
2018-10-17T23:18:02.074Z,64.86
2018-10-17T23:20:29.628Z,65.17
2018-10-17T23:22:58.066Z,64.47
2018-10-17T23:25:25.581Z,65.04
2018-10-17T23:27:53.071Z,64.84
2018-10-17T23:30:21.053Z,65.11
2018-10-17T23:32:49.089Z,64.92
2018-10-17T23:35:16.589Z,65.17
2018-10-17T23:37:44.432Z,64.90
2018-10-17T23:40:11.966Z,65.17
2018-10-17T23:42:39.539Z,65.04
2018-10-17T23:45:07.484Z,65.54
2018-10-17T23:47:35.913Z,65.78
2018-10-17T23:50:03.485Z,65.24
2018-10-17T23:52:32.596Z,65.78
2018-10-17T23:55:00.562Z,65.76
2018-10-17T23:57:28.080Z,66.00
2018-10-17T23:59:55.653Z,65.66
